sensor_id;sensor_type;location;lat;lon;timestamp;P1;durP1;ratioP1;P2;durP2;ratioP2
71080;SDS011;58740;50.672;18.690;2023-10-13T00:00:46;23.90;;;12.00;;
71080;SDS011;58740;50.672;18.690;2023-10-13T00:03:37;19.90;;;11.50;;
71080;SDS011;58740;50.672;18.690;2023-10-13T00:06:11;20.80;;;10.20;;
71080;SDS011;58740;50.672;18.690;2023-10-13T00:08:46;21.20;;;10.30;;
71080;SDS011;58740;50.672;18.690;2023-10-13T00:11:20;17.90;;;10.30;;
71080;SDS011;58740;50.672;18.690;2023-10-13T00:13:57;23.80;;;11.50;;
71080;SDS011;58740;50.672;18.690;2023-10-13T00:16:33;17.90;;;11.20;;
71080;SDS011;58740;50.672;18.690;2023-10-13T00:19:09;21.90;;;10.10;;
71080;SDS011;58740;50.672;18.690;2023-10-13T00:21:43;20.10;;;9.70;;
71080;SDS011;58740;50.672;18.690;2023-10-13T00:24:18;18.00;;;9.00;;
71080;SDS011;58740;50.672;18.690;2023-10-13T00:26:53;19.40;;;10.10;;
71080;SDS011;58740;50.672;18.690;2023-10-13T00:29:28;17.50;;;8.10;;
71080;SDS011;58740;50.672;18.690;2023-10-13T00:32:07;14.10;;;7.50;;
71080;SDS011;58740;50.672;18.690;2023-10-13T00:34:43;16.10;;;7.50;;
71080;SDS011;58740;50.672;18.690;2023-10-13T00:37:16;15.00;;;8.20;;
71080;SDS011;58740;50.672;18.690;2023-10-13T00:39:57;15.00;;;7.50;;
71080;SDS011;58740;50.672;18.690;2023-10-13T00:42:38;15.60;;;7.30;;
71080;SDS011;58740;50.672;18.690;2023-10-13T00:45:22;14.50;;;6.90;;
71080;SDS011;58740;50.672;18.690;2023-10-13T00:47:58;12.90;;;6.80;;
71080;SDS011;58740;50.672;18.690;2023-10-13T00:50:44;15.40;;;7.00;;
71080;SDS011;58740;50.672;18.690;2023-10-13T00:53:17;15.20;;;7.30;;
71080;SDS011;58740;50.672;18.690;2023-10-13T00:55:51;13.10;;;6.80;;
71080;SDS011;58740;50.672;18.690;2023-10-13T00:58:27;12.80;;;6.90;;
71080;SDS011;58740;50.672;18.690;2023-10-13T01:01:01;11.80;;;6.90;;
71080;SDS011;58740;50.672;18.690;2023-10-13T01:03:50;14.50;;;6.10;;
71080;SDS011;58740;50.672;18.690;2023-10-13T01:06:26;11.90;;;6.80;;
71080;SDS011;58740;50.672;18.690;2023-10-13T01:09:06;15.20;;;6.40;;
71080;SDS011;58740;50.672;18.690;2023-10-13T01:11:48;15.10;;;7.60;;
71080;SDS011;58740;50.672;18.690;2023-10-13T01:14:24;13.60;;;6.80;;
71080;SDS011;58740;50.672;18.690;2023-10-13T01:16:59;17.00;;;6.60;;
71080;SDS011;58740;50.672;18.690;2023-10-13T01:19:38;14.10;;;6.50;;
71080;SDS011;58740;50.672;18.690;2023-10-13T01:22:14;12.50;;;6.30;;
71080;SDS011;58740;50.672;18.690;2023-10-13T01:24:47;11.80;;;6.30;;
71080;SDS011;58740;50.672;18.690;2023-10-13T01:27:21;14.00;;;6.30;;
71080;SDS011;58740;50.672;18.690;2023-10-13T01:29:55;12.20;;;6.60;;
71080;SDS011;58740;50.672;18.690;2023-10-13T01:32:36;12.00;;;6.70;;
71080;SDS011;58740;50.672;18.690;2023-10-13T01:35:11;12.90;;;6.60;;
71080;SDS011;58740;50.672;18.690;2023-10-13T01:37:45;12.20;;;6.20;;
71080;SDS011;58740;50.672;18.690;2023-10-13T01:40:20;17.00;;;7.30;;
71080;SDS011;58740;50.672;18.690;2023-10-13T01:42:59;14.70;;;7.20;;
71080;SDS011;58740;50.672;18.690;2023-10-13T01:45:35;22.90;;;8.50;;
71080;SDS011;58740;50.672;18.690;2023-10-13T01:48:20;14.80;;;6.60;;
71080;SDS011;58740;50.672;18.690;2023-10-13T01:50:57;12.90;;;6.80;;
71080;SDS011;58740;50.672;18.690;2023-10-13T01:53:34;18.60;;;8.20;;
71080;SDS011;58740;50.672;18.690;2023-10-13T01:56:08;13.80;;;7.30;;
71080;SDS011;58740;50.672;18.690;2023-10-13T01:58:42;15.30;;;8.20;;
71080;SDS011;58740;50.672;18.690;2023-10-13T02:01:18;18.80;;;8.90;;
71080;SDS011;58740;50.672;18.690;2023-10-13T02:03:57;17.60;;;8.90;;
71080;SDS011;58740;50.672;18.690;2023-10-13T02:06:35;15.80;;;8.10;;
71080;SDS011;58740;50.672;18.690;2023-10-13T02:09:09;17.50;;;8.40;;
71080;SDS011;58740;50.672;18.690;2023-10-13T02:11:44;15.60;;;8.90;;
71080;SDS011;58740;50.672;18.690;2023-10-13T02:14:17;18.30;;;9.30;;
71080;SDS011;58740;50.672;18.690;2023-10-13T02:16:52;18.50;;;7.70;;
71080;SDS011;58740;50.672;18.690;2023-10-13T02:19:42;16.00;;;8.30;;
71080;SDS011;58740;50.672;18.690;2023-10-13T02:22:17;17.40;;;8.70;;
71080;SDS011;58740;50.672;18.690;2023-10-13T02:24:58;19.70;;;8.00;;
71080;SDS011;58740;50.672;18.690;2023-10-13T02:27:36;15.20;;;8.60;;
71080;SDS011;58740;50.672;18.690;2023-10-13T02:30:13;15.10;;;8.10;;
71080;SDS011;58740;50.672;18.690;2023-10-13T02:32:46;19.20;;;8.50;;
71080;SDS011;58740;50.672;18.690;2023-10-13T02:35:19;15.00;;;8.30;;
71080;SDS011;58740;50.672;18.690;2023-10-13T02:38:00;19.60;;;9.20;;
71080;SDS011;58740;50.672;18.690;2023-10-13T02:40:41;16.90;;;9.20;;
71080;SDS011;58740;50.672;18.690;2023-10-13T02:43:14;18.20;;;9.80;;
71080;SDS011;58740;50.672;18.690;2023-10-13T02:45:55;16.50;;;8.90;;
71080;SDS011;58740;50.672;18.690;2023-10-13T02:48:30;22.20;;;9.60;;
71080;SDS011;58740;50.672;18.690;2023-10-13T02:51:11;18.60;;;10.70;;
71080;SDS011;58740;50.672;18.690;2023-10-13T02:53:47;17.50;;;9.00;;
71080;SDS011;58740;50.672;18.690;2023-10-13T02:56:21;18.10;;;9.10;;
71080;SDS011;58740;50.672;18.690;2023-10-13T02:58:54;17.50;;;10.00;;
71080;SDS011;58740;50.672;18.690;2023-10-13T03:01:28;18.60;;;9.30;;
71080;SDS011;58740;50.672;18.690;2023-10-13T03:04:05;18.90;;;9.30;;
71080;SDS011;58740;50.672;18.690;2023-10-13T03:06:39;25.50;;;9.90;;
71080;SDS011;58740;50.672;18.690;2023-10-13T03:09:13;16.20;;;8.60;;
71080;SDS011;58740;50.672;18.690;2023-10-13T03:11:50;20.70;;;10.30;;
71080;SDS011;58740;50.672;18.690;2023-10-13T03:14:23;14.80;;;9.40;;
71080;SDS011;58740;50.672;18.690;2023-10-13T03:17:02;19.30;;;10.80;;
71080;SDS011;58740;50.672;18.690;2023-10-13T03:19:37;17.30;;;9.90;;
71080;SDS011;58740;50.672;18.690;2023-10-13T03:22:17;16.40;;;10.00;;
71080;SDS011;58740;50.672;18.690;2023-10-13T03:25:01;17.10;;;10.10;;
71080;SDS011;58740;50.672;18.690;2023-10-13T03:27:36;20.50;;;9.90;;
71080;SDS011;58740;50.672;18.690;2023-10-13T03:30:32;20.00;;;11.40;;
71080;SDS011;58740;50.672;18.690;2023-10-13T03:33:10;22.60;;;12.00;;
71080;SDS011;58740;50.672;18.690;2023-10-13T03:35:44;21.60;;;11.20;;
71080;SDS011;58740;50.672;18.690;2023-10-13T03:38:24;18.00;;;10.80;;
71080;SDS011;58740;50.672;18.690;2023-10-13T03:40:58;23.10;;;11.70;;
71080;SDS011;58740;50.672;18.690;2023-10-13T03:43:42;22.10;;;12.90;;
71080;SDS011;58740;50.672;18.690;2023-10-13T03:46:22;19.70;;;11.70;;
71080;SDS011;58740;50.672;18.690;2023-10-13T03:48:57;22.90;;;12.50;;
71080;SDS011;58740;50.672;18.690;2023-10-13T03:51:32;22.20;;;11.70;;
71080;SDS011;58740;50.672;18.690;2023-10-13T03:54:09;22.90;;;12.40;;
71080;SDS011;58740;50.672;18.690;2023-10-13T03:56:46;22.60;;;12.30;;
71080;SDS011;58740;50.672;18.690;2023-10-13T03:59:23;26.30;;;13.10;;
71080;SDS011;58740;50.672;18.690;2023-10-13T04:02:05;25.30;;;13.10;;
71080;SDS011;58740;50.672;18.690;2023-10-13T04:04:49;27.50;;;12.70;;
71080;SDS011;58740;50.672;18.690;2023-10-13T04:07:25;26.50;;;14.20;;
71080;SDS011;58740;50.672;18.690;2023-10-13T04:10:30;22.30;;;12.90;;
71080;SDS011;58740;50.672;18.690;2023-10-13T04:13:22;26.00;;;14.40;;
71080;SDS011;58740;50.672;18.690;2023-10-13T04:16:12;25.70;;;14.00;;
71080;SDS011;58740;50.672;18.690;2023-10-13T04:19:05;25.90;;;13.80;;
71080;SDS011;58740;50.672;18.690;2023-10-13T04:21:52;29.80;;;16.20;;
71080;SDS011;58740;50.672;18.690;2023-10-13T04:24:44;29.70;;;16.80;;
71080;SDS011;58740;50.672;18.690;2023-10-13T04:27:52;27.60;;;16.40;;
71080;SDS011;58740;50.672;18.690;2023-10-13T04:30:50;27.20;;;14.60;;
71080;SDS011;58740;50.672;18.690;2023-10-13T04:33:42;28.00;;;15.30;;
71080;SDS011;58740;50.672;18.690;2023-10-13T04:36:22;22.50;;;14.70;;
71080;SDS011;58740;50.672;18.690;2023-10-13T04:39:15;32.40;;;14.70;;
71080;SDS011;58740;50.672;18.690;2023-10-13T04:42:00;28.70;;;15.60;;
71080;SDS011;58740;50.672;18.690;2023-10-13T04:44:44;27.70;;;15.50;;
71080;SDS011;58740;50.672;18.690;2023-10-13T04:47:23;25.80;;;14.80;;
71080;SDS011;58740;50.672;18.690;2023-10-13T04:50:00;26.70;;;15.10;;
71080;SDS011;58740;50.672;18.690;2023-10-13T04:52:52;26.90;;;14.80;;
71080;SDS011;58740;50.672;18.690;2023-10-13T04:55:36;29.40;;;15.10;;
71080;SDS011;58740;50.672;18.690;2023-10-13T04:58:30;27.40;;;14.50;;
71080;SDS011;58740;50.672;18.690;2023-10-13T05:01:37;28.50;;;15.60;;
71080;SDS011;58740;50.672;18.690;2023-10-13T05:04:31;30.70;;;16.40;;
71080;SDS011;58740;50.672;18.690;2023-10-13T05:07:31;27.40;;;14.40;;
71080;SDS011;58740;50.672;18.690;2023-10-13T05:10:22;25.30;;;15.00;;
71080;SDS011;58740;50.672;18.690;2023-10-13T05:13:14;27.10;;;14.50;;
71080;SDS011;58740;50.672;18.690;2023-10-13T05:16:05;29.60;;;16.80;;
71080;SDS011;58740;50.672;18.690;2023-10-13T05:18:56;28.90;;;16.40;;
71080;SDS011;58740;50.672;18.690;2023-10-13T05:21:47;27.90;;;15.10;;
71080;SDS011;58740;50.672;18.690;2023-10-13T05:24:37;24.90;;;14.60;;
71080;SDS011;58740;50.672;18.690;2023-10-13T05:27:28;28.70;;;16.10;;
71080;SDS011;58740;50.672;18.690;2023-10-13T05:30:19;29.80;;;15.50;;
71080;SDS011;58740;50.672;18.690;2023-10-13T05:33:10;30.10;;;15.20;;
71080;SDS011;58740;50.672;18.690;2023-10-13T05:36:01;26.10;;;16.70;;
71080;SDS011;58740;50.672;18.690;2023-10-13T05:38:58;27.00;;;15.40;;
71080;SDS011;58740;50.672;18.690;2023-10-13T05:41:49;28.50;;;15.90;;
71080;SDS011;58740;50.672;18.690;2023-10-13T05:44:40;28.00;;;15.10;;
71080;SDS011;58740;50.672;18.690;2023-10-13T05:47:26;28.30;;;14.80;;
71080;SDS011;58740;50.672;18.690;2023-10-13T05:50:21;31.20;;;15.10;;
71080;SDS011;58740;50.672;18.690;2023-10-13T05:53:20;26.00;;;15.80;;
71080;SDS011;58740;50.672;18.690;2023-10-13T05:56:10;25.40;;;14.10;;
71080;SDS011;58740;50.672;18.690;2023-10-13T05:59:01;34.70;;;20.60;;
71080;SDS011;58740;50.672;18.690;2023-10-13T06:01:52;34.10;;;17.10;;
71080;SDS011;58740;50.672;18.690;2023-10-13T06:04:43;37.00;;;21.20;;
71080;SDS011;58740;50.672;18.690;2023-10-13T06:07:33;27.80;;;16.20;;
71080;SDS011;58740;50.672;18.690;2023-10-13T06:10:24;26.60;;;15.10;;
71080;SDS011;58740;50.672;18.690;2023-10-13T06:13:15;27.20;;;14.20;;
71080;SDS011;58740;50.672;18.690;2023-10-13T06:16:07;25.70;;;14.60;;
71080;SDS011;58740;50.672;18.690;2023-10-13T06:19:00;25.30;;;13.50;;
71080;SDS011;58740;50.672;18.690;2023-10-13T06:21:51;20.60;;;12.80;;
71080;SDS011;58740;50.672;18.690;2023-10-13T06:24:42;25.50;;;13.40;;
71080;SDS011;58740;50.672;18.690;2023-10-13T06:27:33;21.70;;;11.90;;
71080;SDS011;58740;50.672;18.690;2023-10-13T06:30:24;26.30;;;14.10;;
71080;SDS011;58740;50.672;18.690;2023-10-13T06:32:57;24.30;;;12.30;;
71080;SDS011;58740;50.672;18.690;2023-10-13T06:35:31;26.80;;;12.50;;
71080;SDS011;58740;50.672;18.690;2023-10-13T06:38:05;24.80;;;13.00;;
71080;SDS011;58740;50.672;18.690;2023-10-13T06:40:51;23.80;;;13.50;;
71080;SDS011;58740;50.672;18.690;2023-10-13T06:43:24;24.80;;;13.80;;
71080;SDS011;58740;50.672;18.690;2023-10-13T06:46:03;23.60;;;13.00;;
71080;SDS011;58740;50.672;18.690;2023-10-13T06:48:37;22.20;;;12.90;;
71080;SDS011;58740;50.672;18.690;2023-10-13T06:51:11;22.30;;;12.10;;
71080;SDS011;58740;50.672;18.690;2023-10-13T06:53:52;20.80;;;12.80;;
71080;SDS011;58740;50.672;18.690;2023-10-13T06:56:27;22.80;;;12.10;;
71080;SDS011;58740;50.672;18.690;2023-10-13T06:59:01;19.40;;;11.40;;
71080;SDS011;58740;50.672;18.690;2023-10-13T07:01:35;29.00;;;12.90;;
71080;SDS011;58740;50.672;18.690;2023-10-13T07:04:11;19.20;;;11.10;;
71080;SDS011;58740;50.672;18.690;2023-10-13T07:06:46;20.40;;;10.90;;
71080;SDS011;58740;50.672;18.690;2023-10-13T07:09:19;19.10;;;11.10;;
71080;SDS011;58740;50.672;18.690;2023-10-13T07:12:10;23.00;;;12.10;;
71080;SDS011;58740;50.672;18.690;2023-10-13T07:14:49;23.00;;;11.40;;
71080;SDS011;58740;50.672;18.690;2023-10-13T07:17:24;20.40;;;12.00;;
71080;SDS011;58740;50.672;18.690;2023-10-13T07:19:58;20.00;;;11.00;;
71080;SDS011;58740;50.672;18.690;2023-10-13T07:22:46;26.20;;;11.80;;
71080;SDS011;58740;50.672;18.690;2023-10-13T07:25:28;20.40;;;11.30;;
71080;SDS011;58740;50.672;18.690;2023-10-13T07:28:03;22.30;;;10.60;;
71080;SDS011;58740;50.672;18.690;2023-10-13T07:30:40;20.30;;;10.80;;
71080;SDS011;58740;50.672;18.690;2023-10-13T07:33:21;17.90;;;10.20;;
71080;SDS011;58740;50.672;18.690;2023-10-13T07:36:02;21.50;;;10.60;;
71080;SDS011;58740;50.672;18.690;2023-10-13T07:38:46;20.30;;;10.10;;
71080;SDS011;58740;50.672;18.690;2023-10-13T07:41:51;23.00;;;10.20;;
71080;SDS011;58740;50.672;18.690;2023-10-13T07:44:35;16.50;;;9.60;;
71080;SDS011;58740;50.672;18.690;2023-10-13T07:47:17;17.40;;;8.90;;
71080;SDS011;58740;50.672;18.690;2023-10-13T07:49:51;16.70;;;8.90;;
71080;SDS011;58740;50.672;18.690;2023-10-13T07:52:28;19.60;;;11.90;;
71080;SDS011;58740;50.672;18.690;2023-10-13T07:55:08;20.90;;;9.60;;
71080;SDS011;58740;50.672;18.690;2023-10-13T07:57:44;17.60;;;10.60;;
71080;SDS011;58740;50.672;18.690;2023-10-13T08:00:29;17.10;;;9.20;;
71080;SDS011;58740;50.672;18.690;2023-10-13T08:03:17;21.00;;;11.20;;
71080;SDS011;58740;50.672;18.690;2023-10-13T08:06:02;28.80;;;17.60;;
71080;SDS011;58740;50.672;18.690;2023-10-13T08:08:51;20.20;;;10.30;;
71080;SDS011;58740;50.672;18.690;2023-10-13T08:11:26;16.70;;;8.70;;
71080;SDS011;58740;50.672;18.690;2023-10-13T08:14:05;16.10;;;7.30;;
71080;SDS011;58740;50.672;18.690;2023-10-13T08:17:08;14.50;;;8.50;;
71080;SDS011;58740;50.672;18.690;2023-10-13T08:19:42;15.80;;;7.90;;
71080;SDS011;58740;50.672;18.690;2023-10-13T08:22:17;17.40;;;8.10;;
71080;SDS011;58740;50.672;18.690;2023-10-13T08:24:56;14.40;;;7.10;;
71080;SDS011;58740;50.672;18.690;2023-10-13T08:27:46;13.20;;;7.40;;
71080;SDS011;58740;50.672;18.690;2023-10-13T08:30:52;14.20;;;7.30;;
71080;SDS011;58740;50.672;18.690;2023-10-13T08:33:27;12.30;;;7.00;;
71080;SDS011;58740;50.672;18.690;2023-10-13T08:36:02;12.50;;;7.60;;
71080;SDS011;58740;50.672;18.690;2023-10-13T08:38:58;14.50;;;8.40;;
71080;SDS011;58740;50.672;18.690;2023-10-13T08:41:52;17.40;;;8.40;;
71080;SDS011;58740;50.672;18.690;2023-10-13T08:44:45;13.60;;;6.90;;
71080;SDS011;58740;50.672;18.690;2023-10-13T08:47:22;14.00;;;7.60;;
71080;SDS011;58740;50.672;18.690;2023-10-13T08:50:07;13.60;;;7.50;;
71080;SDS011;58740;50.672;18.690;2023-10-13T08:53:02;11.90;;;6.90;;
71080;SDS011;58740;50.672;18.690;2023-10-13T08:55:58;14.10;;;7.10;;
71080;SDS011;58740;50.672;18.690;2023-10-13T08:58:37;13.60;;;7.20;;
71080;SDS011;58740;50.672;18.690;2023-10-13T09:01:30;11.30;;;6.90;;
71080;SDS011;58740;50.672;18.690;2023-10-13T09:04:11;13.00;;;7.40;;
71080;SDS011;58740;50.672;18.690;2023-10-13T09:06:59;13.10;;;7.10;;
71080;SDS011;58740;50.672;18.690;2023-10-13T09:09:49;15.10;;;7.20;;
71080;SDS011;58740;50.672;18.690;2023-10-13T09:12:42;17.40;;;7.20;;
71080;SDS011;58740;50.672;18.690;2023-10-13T09:15:31;11.10;;;7.20;;
71080;SDS011;58740;50.672;18.690;2023-10-13T09:18:28;10.30;;;5.90;;
71080;SDS011;58740;50.672;18.690;2023-10-13T09:21:23;9.50;;;5.20;;
71080;SDS011;58740;50.672;18.690;2023-10-13T09:24:22;10.40;;;6.10;;
71080;SDS011;58740;50.672;18.690;2023-10-13T09:27:03;10.30;;;5.30;;
71080;SDS011;58740;50.672;18.690;2023-10-13T09:29:37;9.50;;;5.30;;
71080;SDS011;58740;50.672;18.690;2023-10-13T09:32:12;9.80;;;5.00;;
71080;SDS011;58740;50.672;18.690;2023-10-13T09:34:47;12.10;;;5.10;;
71080;SDS011;58740;50.672;18.690;2023-10-13T09:37:21;10.70;;;5.10;;
71080;SDS011;58740;50.672;18.690;2023-10-13T09:39:57;10.60;;;5.50;;
71080;SDS011;58740;50.672;18.690;2023-10-13T09:42:51;9.40;;;5.40;;
71080;SDS011;58740;50.672;18.690;2023-10-13T09:45:30;9.00;;;5.50;;
71080;SDS011;58740;50.672;18.690;2023-10-13T09:48:10;11.80;;;6.50;;
71080;SDS011;58740;50.672;18.690;2023-10-13T09:50:52;11.40;;;4.70;;
71080;SDS011;58740;50.672;18.690;2023-10-13T09:53:31;10.10;;;4.80;;
71080;SDS011;58740;50.672;18.690;2023-10-13T09:56:10;7.30;;;4.50;;
71080;SDS011;58740;50.672;18.690;2023-10-13T09:58:51;8.80;;;4.20;;
71080;SDS011;58740;50.672;18.690;2023-10-13T10:01:29;9.00;;;4.50;;
71080;SDS011;58740;50.672;18.690;2023-10-13T10:04:14;9.10;;;4.60;;
71080;SDS011;58740;50.672;18.690;2023-10-13T10:06:54;7.00;;;4.00;;
71080;SDS011;58740;50.672;18.690;2023-10-13T10:09:31;9.30;;;4.00;;
71080;SDS011;58740;50.672;18.690;2023-10-13T10:12:22;8.40;;;3.50;;
71080;SDS011;58740;50.672;18.690;2023-10-13T10:15:09;6.80;;;3.90;;
71080;SDS011;58740;50.672;18.690;2023-10-13T10:17:59;8.70;;;4.20;;
71080;SDS011;58740;50.672;18.690;2023-10-13T10:20:33;8.60;;;4.00;;
71080;SDS011;58740;50.672;18.690;2023-10-13T10:23:24;7.00;;;3.70;;
71080;SDS011;58740;50.672;18.690;2023-10-13T10:26:10;8.20;;;4.00;;
71080;SDS011;58740;50.672;18.690;2023-10-13T10:28:46;7.40;;;3.80;;
71080;SDS011;58740;50.672;18.690;2023-10-13T10:31:20;10.00;;;3.90;;
71080;SDS011;58740;50.672;18.690;2023-10-13T10:34:15;7.90;;;4.00;;
71080;SDS011;58740;50.672;18.690;2023-10-13T10:36:55;8.90;;;4.10;;
71080;SDS011;58740;50.672;18.690;2023-10-13T10:39:36;9.90;;;4.30;;
71080;SDS011;58740;50.672;18.690;2023-10-13T10:42:16;9.30;;;5.00;;
71080;SDS011;58740;50.672;18.690;2023-10-13T10:44:54;10.00;;;4.60;;
71080;SDS011;58740;50.672;18.690;2023-10-13T10:47:35;9.40;;;4.50;;
71080;SDS011;58740;50.672;18.690;2023-10-13T10:50:10;11.70;;;5.60;;
71080;SDS011;58740;50.672;18.690;2023-10-13T10:52:49;8.60;;;3.70;;
71080;SDS011;58740;50.672;18.690;2023-10-13T10:55:28;7.30;;;3.80;;
71080;SDS011;58740;50.672;18.690;2023-10-13T10:58:02;9.10;;;3.50;;
71080;SDS011;58740;50.672;18.690;2023-10-13T11:00:37;7.00;;;3.50;;
71080;SDS011;58740;50.672;18.690;2023-10-13T11:03:17;7.30;;;3.50;;
71080;SDS011;58740;50.672;18.690;2023-10-13T11:05:50;6.30;;;3.50;;
71080;SDS011;58740;50.672;18.690;2023-10-13T11:08:25;7.80;;;4.10;;
71080;SDS011;58740;50.672;18.690;2023-10-13T11:11:02;8.10;;;4.30;;
71080;SDS011;58740;50.672;18.690;2023-10-13T11:13:43;7.60;;;3.80;;
71080;SDS011;58740;50.672;18.690;2023-10-13T11:16:23;11.30;;;3.80;;
71080;SDS011;58740;50.672;18.690;2023-10-13T11:19:04;17.50;;;8.50;;
71080;SDS011;58740;50.672;18.690;2023-10-13T11:21:38;19.10;;;9.60;;
71080;SDS011;58740;50.672;18.690;2023-10-13T11:24:12;9.40;;;4.60;;
71080;SDS011;58740;50.672;18.690;2023-10-13T11:26:48;9.70;;;4.20;;
71080;SDS011;58740;50.672;18.690;2023-10-13T11:29:33;8.00;;;4.00;;
71080;SDS011;58740;50.672;18.690;2023-10-13T11:32:06;7.00;;;4.20;;
71080;SDS011;58740;50.672;18.690;2023-10-13T11:34:51;7.90;;;4.90;;
71080;SDS011;58740;50.672;18.690;2023-10-13T11:37:25;9.30;;;4.90;;
71080;SDS011;58740;50.672;18.690;2023-10-13T11:40:10;9.00;;;4.80;;
71080;SDS011;58740;50.672;18.690;2023-10-13T11:42:46;9.20;;;4.90;;
71080;SDS011;58740;50.672;18.690;2023-10-13T11:45:20;10.90;;;5.30;;
71080;SDS011;58740;50.672;18.690;2023-10-13T11:48:00;9.20;;;5.60;;
71080;SDS011;58740;50.672;18.690;2023-10-13T11:50:41;10.90;;;5.50;;
71080;SDS011;58740;50.672;18.690;2023-10-13T11:53:16;10.10;;;5.30;;
71080;SDS011;58740;50.672;18.690;2023-10-13T11:55:50;11.60;;;5.20;;
71080;SDS011;58740;50.672;18.690;2023-10-13T11:58:23;11.30;;;4.50;;
71080;SDS011;58740;50.672;18.690;2023-10-13T12:00:56;11.20;;;4.60;;
71080;SDS011;58740;50.672;18.690;2023-10-13T12:03:50;9.80;;;4.20;;
71080;SDS011;58740;50.672;18.690;2023-10-13T12:06:48;9.50;;;4.90;;
71080;SDS011;58740;50.672;18.690;2023-10-13T12:09:33;10.40;;;4.60;;
71080;SDS011;58740;50.672;18.690;2023-10-13T12:12:22;12.40;;;4.40;;
71080;SDS011;58740;50.672;18.690;2023-10-13T12:14:57;9.20;;;4.20;;
71080;SDS011;58740;50.672;18.690;2023-10-13T12:17:39;9.70;;;4.30;;
71080;SDS011;58740;50.672;18.690;2023-10-13T12:20:15;11.00;;;5.70;;
71080;SDS011;58740;50.672;18.690;2023-10-13T12:23:03;10.90;;;4.20;;
71080;SDS011;58740;50.672;18.690;2023-10-13T12:25:46;8.20;;;3.90;;
71080;SDS011;58740;50.672;18.690;2023-10-13T12:28:36;11.40;;;5.20;;
71080;SDS011;58740;50.672;18.690;2023-10-13T12:31:12;10.40;;;3.70;;
71080;SDS011;58740;50.672;18.690;2023-10-13T12:33:46;6.40;;;3.10;;
71080;SDS011;58740;50.672;18.690;2023-10-13T12:36:19;11.00;;;4.60;;
71080;SDS011;58740;50.672;18.690;2023-10-13T12:39:01;13.90;;;4.60;;
71080;SDS011;58740;50.672;18.690;2023-10-13T12:41:52;10.70;;;3.80;;
71080;SDS011;58740;50.672;18.690;2023-10-13T12:44:43;7.70;;;3.40;;
71080;SDS011;58740;50.672;18.690;2023-10-13T12:47:33;10.10;;;4.00;;
71080;SDS011;58740;50.672;18.690;2023-10-13T12:50:24;6.10;;;2.90;;
71080;SDS011;58740;50.672;18.690;2023-10-13T12:53:14;7.30;;;3.40;;
71080;SDS011;58740;50.672;18.690;2023-10-13T12:55:47;10.00;;;3.60;;
71080;SDS011;58740;50.672;18.690;2023-10-13T12:58:22;28.30;;;4.10;;
71080;SDS011;58740;50.672;18.690;2023-10-13T13:01:01;7.20;;;3.70;;
71080;SDS011;58740;50.672;18.690;2023-10-13T13:03:37;11.00;;;3.60;;
71080;SDS011;58740;50.672;18.690;2023-10-13T13:06:18;11.40;;;5.10;;
71080;SDS011;58740;50.672;18.690;2023-10-13T13:08:56;9.90;;;4.70;;
71080;SDS011;58740;50.672;18.690;2023-10-13T13:11:31;10.50;;;4.70;;
71080;SDS011;58740;50.672;18.690;2023-10-13T13:14:07;8.50;;;4.30;;
71080;SDS011;58740;50.672;18.690;2023-10-13T13:16:41;9.10;;;4.10;;
71080;SDS011;58740;50.672;18.690;2023-10-13T13:19:19;8.60;;;3.20;;
71080;SDS011;58740;50.672;18.690;2023-10-13T13:21:56;8.40;;;3.70;;
71080;SDS011;58740;50.672;18.690;2023-10-13T13:24:30;8.90;;;3.40;;
71080;SDS011;58740;50.672;18.690;2023-10-13T13:27:03;7.50;;;3.50;;
71080;SDS011;58740;50.672;18.690;2023-10-13T13:29:38;7.20;;;3.70;;
71080;SDS011;58740;50.672;18.690;2023-10-13T13:32:12;6.80;;;3.50;;
71080;SDS011;58740;50.672;18.690;2023-10-13T13:34:50;8.20;;;3.50;;
71080;SDS011;58740;50.672;18.690;2023-10-13T13:37:34;9.80;;;4.10;;
71080;SDS011;58740;50.672;18.690;2023-10-13T13:40:10;8.00;;;3.70;;
71080;SDS011;58740;50.672;18.690;2023-10-13T13:42:52;8.60;;;3.70;;
71080;SDS011;58740;50.672;18.690;2023-10-13T13:45:27;8.20;;;3.60;;
71080;SDS011;58740;50.672;18.690;2023-10-13T13:48:02;8.80;;;3.60;;
71080;SDS011;58740;50.672;18.690;2023-10-13T13:50:47;8.00;;;3.00;;
71080;SDS011;58740;50.672;18.690;2023-10-13T13:53:25;9.20;;;3.50;;
71080;SDS011;58740;50.672;18.690;2023-10-13T13:56:03;7.70;;;3.30;;
71080;SDS011;58740;50.672;18.690;2023-10-13T13:58:38;10.60;;;4.20;;
71080;SDS011;58740;50.672;18.690;2023-10-13T14:01:11;8.70;;;3.20;;
71080;SDS011;58740;50.672;18.690;2023-10-13T14:03:46;11.50;;;3.90;;
71080;SDS011;58740;50.672;18.690;2023-10-13T14:06:23;9.30;;;3.50;;
71080;SDS011;58740;50.672;18.690;2023-10-13T14:08:58;7.50;;;3.50;;
71080;SDS011;58740;50.672;18.690;2023-10-13T14:11:34;7.00;;;3.70;;
71080;SDS011;58740;50.672;18.690;2023-10-13T14:14:25;8.00;;;3.90;;
71080;SDS011;58740;50.672;18.690;2023-10-13T14:17:04;8.10;;;3.90;;
71080;SDS011;58740;50.672;18.690;2023-10-13T14:19:40;9.20;;;4.10;;
71080;SDS011;58740;50.672;18.690;2023-10-13T14:22:16;8.50;;;4.50;;
71080;SDS011;58740;50.672;18.690;2023-10-13T14:24:55;8.60;;;4.10;;
71080;SDS011;58740;50.672;18.690;2023-10-13T14:27:34;7.50;;;3.80;;
71080;SDS011;58740;50.672;18.690;2023-10-13T14:30:09;6.70;;;3.60;;
71080;SDS011;58740;50.672;18.690;2023-10-13T14:32:50;8.60;;;3.50;;
71080;SDS011;58740;50.672;18.690;2023-10-13T14:35:23;10.20;;;3.80;;
71080;SDS011;58740;50.672;18.690;2023-10-13T14:37:57;9.80;;;3.70;;
71080;SDS011;58740;50.672;18.690;2023-10-13T14:40:30;8.10;;;3.30;;
71080;SDS011;58740;50.672;18.690;2023-10-13T14:43:04;7.30;;;3.90;;
71080;SDS011;58740;50.672;18.690;2023-10-13T14:45:38;15.10;;;4.60;;
71080;SDS011;58740;50.672;18.690;2023-10-13T14:48:11;8.80;;;3.80;;
71080;SDS011;58740;50.672;18.690;2023-10-13T14:50:47;8.30;;;3.50;;
71080;SDS011;58740;50.672;18.690;2023-10-13T14:53:20;7.20;;;3.20;;
71080;SDS011;58740;50.672;18.690;2023-10-13T14:55:54;8.20;;;3.90;;
71080;SDS011;58740;50.672;18.690;2023-10-13T14:58:31;9.00;;;3.90;;
71080;SDS011;58740;50.672;18.690;2023-10-13T15:01:11;10.20;;;4.20;;
71080;SDS011;58740;50.672;18.690;2023-10-13T15:03:47;8.10;;;3.50;;
71080;SDS011;58740;50.672;18.690;2023-10-13T15:06:26;9.40;;;4.30;;
71080;SDS011;58740;50.672;18.690;2023-10-13T15:09:00;9.50;;;3.70;;
71080;SDS011;58740;50.672;18.690;2023-10-13T15:11:41;8.20;;;3.50;;
71080;SDS011;58740;50.672;18.690;2023-10-13T15:14:19;7.10;;;3.10;;
71080;SDS011;58740;50.672;18.690;2023-10-13T15:16:54;9.10;;;3.40;;
71080;SDS011;58740;50.672;18.690;2023-10-13T15:19:31;8.50;;;3.50;;
71080;SDS011;58740;50.672;18.690;2023-10-13T15:22:06;6.80;;;3.80;;
71080;SDS011;58740;50.672;18.690;2023-10-13T15:24:46;6.90;;;3.30;;
71080;SDS011;58740;50.672;18.690;2023-10-13T15:27:31;8.10;;;3.00;;
71080;SDS011;58740;50.672;18.690;2023-10-13T15:30:12;9.20;;;3.40;;
71080;SDS011;58740;50.672;18.690;2023-10-13T15:32:53;7.30;;;3.50;;
71080;SDS011;58740;50.672;18.690;2023-10-13T15:35:28;8.30;;;3.60;;
71080;SDS011;58740;50.672;18.690;2023-10-13T15:38:02;8.10;;;3.70;;
71080;SDS011;58740;50.672;18.690;2023-10-13T15:40:42;8.10;;;3.80;;